sensor_id;sensor_type;location;lat;lon;timestamp;pressure;altitude;pressure_sealevel;temperature;humidity
59063;BME280;44851;45.648;9.004;2023-01-29T00:01:10;99688.06;;;1.31;54.75
59063;BME280;44851;45.648;9.004;2023-01-29T00:03:36;99686.69;;;1.23;54.69
59063;BME280;44851;45.648;9.004;2023-01-29T00:06:06;99686.69;;;1.23;54.83
59063;BME280;44851;45.648;9.004;2023-01-29T00:08:36;99693.84;;;1.16;55.63
59063;BME280;44851;45.648;9.004;2023-01-29T00:11:07;99703.63;;;1.06;55.66
59063;BME280;44851;45.648;9.004;2023-01-29T00:13:32;99704.63;;;1.24;55.59
59063;BME280;44851;45.648;9.004;2023-01-29T00:16:02;99705.66;;;1.40;55.04
59063;BME280;44851;45.648;9.004;2023-01-29T00:18:28;99707.44;;;1.38;55.34
59063;BME280;44851;45.648;9.004;2023-01-29T00:20:54;99705.78;;;1.37;54.76
59063;BME280;44851;45.648;9.004;2023-01-29T00:23:20;99699.25;;;1.30;54.80
59063;BME280;44851;45.648;9.004;2023-01-29T00:25:46;99696.59;;;1.32;55.14
59063;BME280;44851;45.648;9.004;2023-01-29T00:28:11;99690.63;;;1.31;54.97
59063;BME280;44851;45.648;9.004;2023-01-29T00:30:37;99689.69;;;1.34;54.85
59063;BME280;44851;45.648;9.004;2023-01-29T00:33:03;99684.28;;;1.40;54.26
59063;BME280;44851;45.648;9.004;2023-01-29T00:35:29;99697.31;;;1.35;54.79
59063;BME280;44851;45.648;9.004;2023-01-29T00:37:55;99685.19;;;1.39;54.83
59063;BME280;44851;45.648;9.004;2023-01-29T00:40:21;99699.16;;;1.32;54.85
59063;BME280;44851;45.648;9.004;2023-01-29T00:42:47;99699.97;;;1.34;54.42
59063;BME280;44851;45.648;9.004;2023-01-29T00:45:32;99701.88;;;1.29;54.77
59063;BME280;44851;45.648;9.004;2023-01-29T00:47:57;99708.34;;;1.17;54.24
59063;BME280;44851;45.648;9.004;2023-01-29T00:50:23;99699.75;;;1.18;55.09
59063;BME280;44851;45.648;9.004;2023-01-29T00:52:48;99703.63;;;1.28;54.68
59063;BME280;44851;45.648;9.004;2023-01-29T00:55:16;99700.00;;;1.32;54.64
59063;BME280;44851;45.648;9.004;2023-01-29T00:57:41;99698.47;;;1.28;53.97
59063;BME280;44851;45.648;9.004;2023-01-29T01:00:10;99699.09;;;1.33;53.79
59063;BME280;44851;45.648;9.004;2023-01-29T01:02:35;99702.19;;;1.41;53.67
59063;BME280;44851;45.648;9.004;2023-01-29T01:05:19;99708.44;;;1.36;53.91
59063;BME280;44851;45.648;9.004;2023-01-29T01:07:50;99704.19;;;1.35;53.88
59063;BME280;44851;45.648;9.004;2023-01-29T01:10:25;99705.66;;;1.40;53.47
59063;BME280;44851;45.648;9.004;2023-01-29T01:12:58;99707.38;;;1.20;54.37
59063;BME280;44851;45.648;9.004;2023-01-29T01:15:36;99709.38;;;1.13;54.13
59063;BME280;44851;45.648;9.004;2023-01-29T01:18:03;99713.44;;;1.18;54.57
59063;BME280;44851;45.648;9.004;2023-01-29T01:20:31;99709.63;;;1.27;54.13
59063;BME280;44851;45.648;9.004;2023-01-29T01:22:57;99716.00;;;1.18;54.47
59063;BME280;44851;45.648;9.004;2023-01-29T01:25:24;99714.56;;;1.11;54.56
59063;BME280;44851;45.648;9.004;2023-01-29T01:27:54;99722.03;;;1.17;54.18
59063;BME280;44851;45.648;9.004;2023-01-29T01:30:20;99719.84;;;1.08;54.53
59063;BME280;44851;45.648;9.004;2023-01-29T01:32:46;99720.41;;;1.15;54.32
59063;BME280;44851;45.648;9.004;2023-01-29T01:35:11;99716.94;;;1.16;53.95
59063;BME280;44851;45.648;9.004;2023-01-29T01:37:39;99718.81;;;1.12;54.26
59063;BME280;44851;45.648;9.004;2023-01-29T01:40:09;99723.59;;;1.00;54.11
59063;BME280;44851;45.648;9.004;2023-01-29T01:42:38;99723.47;;;1.03;54.48
59063;BME280;44851;45.648;9.004;2023-01-29T01:45:05;99715.97;;;0.98;54.47
59063;BME280;44851;45.648;9.004;2023-01-29T01:47:42;99717.69;;;0.98;54.34
59063;BME280;44851;45.648;9.004;2023-01-29T01:50:15;99727.88;;;0.99;54.56
59063;BME280;44851;45.648;9.004;2023-01-29T01:52:45;99724.84;;;0.89;54.59
59063;BME280;44851;45.648;9.004;2023-01-29T01:55:13;99720.53;;;0.90;54.59
59063;BME280;44851;45.648;9.004;2023-01-29T01:57:42;99722.09;;;0.94;54.85
59063;BME280;44851;45.648;9.004;2023-01-29T02:00:13;99722.16;;;0.92;54.71
59063;BME280;44851;45.648;9.004;2023-01-29T02:02:41;99721.91;;;0.99;54.84
59063;BME280;44851;45.648;9.004;2023-01-29T02:05:28;99724.38;;;1.02;54.69
59063;BME280;44851;45.648;9.004;2023-01-29T02:08:13;99720.38;;;0.95;54.79
59063;BME280;44851;45.648;9.004;2023-01-29T02:10:58;99722.00;;;0.97;54.62
59063;BME280;44851;45.648;9.004;2023-01-29T02:13:25;99724.38;;;1.02;54.38
59063;BME280;44851;45.648;9.004;2023-01-29T02:15:50;99731.19;;;1.03;54.69
59063;BME280;44851;45.648;9.004;2023-01-29T02:18:18;99729.28;;;0.86;54.67
59063;BME280;44851;45.648;9.004;2023-01-29T02:21:23;99746.78;;;0.75;54.35
59063;BME280;44851;45.648;9.004;2023-01-29T02:24:30;99740.06;;;0.72;54.89
59063;BME280;44851;45.648;9.004;2023-01-29T02:27:14;99744.97;;;0.78;54.53
59063;BME280;44851;45.648;9.004;2023-01-29T02:29:46;99745.88;;;0.77;55.92
59063;BME280;44851;45.648;9.004;2023-01-29T02:32:29;99744.78;;;0.83;55.00
59063;BME280;44851;45.648;9.004;2023-01-29T02:35:15;99749.09;;;0.82;54.20
59063;BME280;44851;45.648;9.004;2023-01-29T02:38:35;99751.09;;;0.74;53.75
59063;BME280;44851;45.648;9.004;2023-01-29T02:41:21;99752.22;;;0.67;54.97
59063;BME280;44851;45.648;9.004;2023-01-29T02:44:23;99747.81;;;0.49;54.76
59063;BME280;44851;45.648;9.004;2023-01-29T02:52:24;99761.88;;;0.38;54.33
59063;BME280;44851;45.648;9.004;2023-01-29T02:54:59;99761.47;;;0.49;56.07
59063;BME280;44851;45.648;9.004;2023-01-29T02:57:30;99763.97;;;0.51;56.20
59063;BME280;44851;45.648;9.004;2023-01-29T03:00:02;99764.47;;;0.60;55.77
59063;BME280;44851;45.648;9.004;2023-01-29T03:02:32;99756.22;;;0.52;55.52
59063;BME280;44851;45.648;9.004;2023-01-29T03:05:03;99762.72;;;0.37;56.11
59063;BME280;44851;45.648;9.004;2023-01-29T03:07:37;99770.00;;;0.26;56.59
59063;BME280;44851;45.648;9.004;2023-01-29T03:10:16;99759.53;;;0.32;56.62
59063;BME280;44851;45.648;9.004;2023-01-29T03:12:43;99754.53;;;0.51;56.73
59063;BME280;44851;45.648;9.004;2023-01-29T03:15:16;99755.50;;;0.49;56.58
59063;BME280;44851;45.648;9.004;2023-01-29T03:17:58;99760.16;;;0.37;56.33
59063;BME280;44851;45.648;9.004;2023-01-29T03:20:30;99756.41;;;0.24;56.25
59063;BME280;44851;45.648;9.004;2023-01-29T03:23:03;99755.81;;;0.16;56.99
59063;BME280;44851;45.648;9.004;2023-01-29T03:25:34;99763.34;;;0.21;57.32
59063;BME280;44851;45.648;9.004;2023-01-29T03:28:20;99760.56;;;0.27;56.89
59063;BME280;44851;45.648;9.004;2023-01-29T03:31:07;99754.97;;;0.17;57.05
59063;BME280;44851;45.648;9.004;2023-01-29T03:34:06;99761.34;;;0.05;56.59
59063;BME280;44851;45.648;9.004;2023-01-29T03:36:42;99761.97;;;0.12;56.92
59063;BME280;44851;45.648;9.004;2023-01-29T03:39:12;99760.34;;;0.09;57.34
59063;BME280;44851;45.648;9.004;2023-01-29T03:44:34;99758.00;;;0.03;57.03
59063;BME280;44851;45.648;9.004;2023-01-29T03:47:16;99761.25;;;0.08;57.91
59063;BME280;44851;45.648;9.004;2023-01-29T03:52:55;99758.50;;;0.13;57.45
59063;BME280;44851;45.648;9.004;2023-01-29T03:58:08;99758.28;;;0.19;57.53
59063;BME280;44851;45.648;9.004;2023-01-29T04:00:51;99765.88;;;0.22;57.83
59063;BME280;44851;45.648;9.004;2023-01-29T04:03:33;99756.50;;;0.21;56.91
59063;BME280;44851;45.648;9.004;2023-01-29T04:06:20;99756.72;;;0.15;57.07
59063;BME280;44851;45.648;9.004;2023-01-29T04:08:54;99745.38;;;0.22;58.29
59063;BME280;44851;45.648;9.004;2023-01-29T04:11:23;99753.38;;;0.13;58.54
59063;BME280;44851;45.648;9.004;2023-01-29T04:13:50;99746.88;;;0.28;57.89
59063;BME280;44851;45.648;9.004;2023-01-29T04:16:34;99760.94;;;0.16;57.25
59063;BME280;44851;45.648;9.004;2023-01-29T04:19:01;99763.09;;;0.28;58.42
59063;BME280;44851;45.648;9.004;2023-01-29T04:21:26;99756.31;;;0.27;58.21
59063;BME280;44851;45.648;9.004;2023-01-29T04:23:52;99755.66;;;0.21;57.94
59063;BME280;44851;45.648;9.004;2023-01-29T04:29:49;99753.06;;;0.22;58.07
59063;BME280;44851;45.648;9.004;2023-01-29T04:32:27;99760.03;;;0.19;58.68
59063;BME280;44851;45.648;9.004;2023-01-29T04:37:52;99766.13;;;0.15;59.35
59063;BME280;44851;45.648;9.004;2023-01-29T04:40:32;99762.44;;;0.23;58.48
59063;BME280;44851;45.648;9.004;2023-01-29T04:46:23;99759.72;;;0.26;58.73
59063;BME280;44851;45.648;9.004;2023-01-29T04:51:52;99767.66;;;0.20;58.30
59063;BME280;44851;45.648;9.004;2023-01-29T04:57:47;99771.41;;;0.11;59.07
59063;BME280;44851;45.648;9.004;2023-01-29T05:02:43;99764.63;;;0.09;59.97
59063;BME280;44851;45.648;9.004;2023-01-29T05:05:11;99755.88;;;0.15;60.01
59063;BME280;44851;45.648;9.004;2023-01-29T05:07:37;99759.28;;;0.15;59.74
59063;BME280;44851;45.648;9.004;2023-01-29T05:10:06;99753.16;;;0.19;59.77
59063;BME280;44851;45.648;9.004;2023-01-29T05:12:34;99755.88;;;0.15;60.16
59063;BME280;44851;45.648;9.004;2023-01-29T05:15:02;99760.19;;;0.14;60.35
59063;BME280;44851;45.648;9.004;2023-01-29T05:17:29;99759.97;;;0.20;60.29
59063;BME280;44851;45.648;9.004;2023-01-29T05:19:55;99757.38;;;0.22;60.47
59063;BME280;44851;45.648;9.004;2023-01-29T05:22:21;99759.19;;;0.18;59.86
59063;BME280;44851;45.648;9.004;2023-01-29T05:24:48;99756.16;;;0.30;60.19
59063;BME280;44851;45.648;9.004;2023-01-29T05:27:20;99766.50;;;0.29;59.81
59063;BME280;44851;45.648;9.004;2023-01-29T05:30:05;99770.44;;;0.14;60.15
59063;BME280;44851;45.648;9.004;2023-01-29T05:32:31;99769.28;;;0.23;60.49
59063;BME280;44851;45.648;9.004;2023-01-29T05:34:56;99768.88;;;0.10;60.17
59063;BME280;44851;45.648;9.004;2023-01-29T05:37:21;99779.09;;;0.11;60.55
59063;BME280;44851;45.648;9.004;2023-01-29T05:39:47;99778.06;;;0.16;60.12
59063;BME280;44851;45.648;9.004;2023-01-29T05:42:12;99791.94;;;0.10;60.26
59063;BME280;44851;45.648;9.004;2023-01-29T05:44:38;99785.25;;;0.06;60.64
59063;BME280;44851;45.648;9.004;2023-01-29T05:47:03;99782.63;;;0.07;60.80
59063;BME280;44851;45.648;9.004;2023-01-29T05:49:28;99789.28;;;0.13;60.39
59063;BME280;44851;45.648;9.004;2023-01-29T05:51:54;99785.03;;;0.12;60.22
59063;BME280;44851;45.648;9.004;2023-01-29T05:54:20;99789.38;;;0.10;60.42
59063;BME280;44851;45.648;9.004;2023-01-29T05:56:45;99783.38;;;0.11;60.49
59063;BME280;44851;45.648;9.004;2023-01-29T05:59:10;99787.47;;;0.15;60.62
59063;BME280;44851;45.648;9.004;2023-01-29T06:01:36;99793.63;;;0.11;60.73
59063;BME280;44851;45.648;9.004;2023-01-29T06:04:01;99792.81;;;0.09;60.18
59063;BME280;44851;45.648;9.004;2023-01-29T06:06:26;99791.06;;;0.11;60.42
59063;BME280;44851;45.648;9.004;2023-01-29T06:08:52;99801.41;;;0.08;60.08
59063;BME280;44851;45.648;9.004;2023-01-29T06:11:17;99794.28;;;0.16;60.17
59063;BME280;44851;45.648;9.004;2023-01-29T06:13:44;99799.84;;;0.04;59.94
59063;BME280;44851;45.648;9.004;2023-01-29T06:16:11;99802.41;;;0.04;60.24
59063;BME280;44851;45.648;9.004;2023-01-29T06:18:37;99804.97;;;0.04;60.10
59063;BME280;44851;45.648;9.004;2023-01-29T06:21:04;99801.09;;;-0.08;60.02
59063;BME280;44851;45.648;9.004;2023-01-29T06:23:30;99804.34;;;-0.03;60.61
59063;BME280;44851;45.648;9.004;2023-01-29T06:26:03;99803.59;;;-0.06;60.44
59063;BME280;44851;45.648;9.004;2023-01-29T06:28:29;99807.16;;;-0.10;60.10
59063;BME280;44851;45.648;9.004;2023-01-29T06:31:00;99811.00;;;0.03;60.47
59063;BME280;44851;45.648;9.004;2023-01-29T06:33:26;99811.97;;;-0.01;60.76
59063;BME280;44851;45.648;9.004;2023-01-29T06:35:59;99816.69;;;0.11;60.58
59063;BME280;44851;45.648;9.004;2023-01-29T06:38:25;99820.13;;;0.10;60.18
59063;BME280;44851;45.648;9.004;2023-01-29T06:40:51;99816.13;;;0.03;60.22
59063;BME280;44851;45.648;9.004;2023-01-29T06:43:16;99821.91;;;0.08;60.16
59063;BME280;44851;45.648;9.004;2023-01-29T06:45:49;99825.69;;;-0.02;60.61
59063;BME280;44851;45.648;9.004;2023-01-29T06:48:15;99828.94;;;0.03;60.00
59063;BME280;44851;45.648;9.004;2023-01-29T06:50:40;99837.72;;;-0.04;60.38
59063;BME280;44851;45.648;9.004;2023-01-29T06:53:06;99836.34;;;-0.15;60.52
59063;BME280;44851;45.648;9.004;2023-01-29T06:55:31;99839.59;;;-0.09;60.31
59063;BME280;44851;45.648;9.004;2023-01-29T06:57:56;99845.56;;;-0.09;60.06
59063;BME280;44851;45.648;9.004;2023-01-29T07:00:22;99846.41;;;-0.08;59.99
59063;BME280;44851;45.648;9.004;2023-01-29T07:02:50;99844.72;;;-0.09;60.25
59063;BME280;44851;45.648;9.004;2023-01-29T07:05:15;99844.59;;;-0.06;60.65
59063;BME280;44851;45.648;9.004;2023-01-29T07:07:40;99842.63;;;0.02;60.77
59063;BME280;44851;45.648;9.004;2023-01-29T07:10:07;99847.53;;;0.08;60.10
59063;BME280;44851;45.648;9.004;2023-01-29T07:12:32;99848.53;;;0.04;60.52
59063;BME280;44851;45.648;9.004;2023-01-29T07:14:58;99856.13;;;0.07;60.32
59063;BME280;44851;45.648;9.004;2023-01-29T07:17:23;99864.81;;;0.03;60.07
59063;BME280;44851;45.648;9.004;2023-01-29T07:19:48;99864.59;;;0.09;60.05
59063;BME280;44851;45.648;9.004;2023-01-29T07:22:13;99860.16;;;0.14;60.32
59063;BME280;44851;45.648;9.004;2023-01-29T07:24:40;99868.72;;;0.13;60.37
59063;BME280;44851;45.648;9.004;2023-01-29T07:27:05;99867.84;;;0.14;59.59
59063;BME280;44851;45.648;9.004;2023-01-29T07:29:31;99868.66;;;0.15;60.25
59063;BME280;44851;45.648;9.004;2023-01-29T07:31:56;99868.78;;;0.11;59.71
59063;BME280;44851;45.648;9.004;2023-01-29T07:34:21;99870.19;;;0.20;59.46
59063;BME280;44851;45.648;9.004;2023-01-29T07:36:47;99869.09;;;0.02;60.01
59063;BME280;44851;45.648;9.004;2023-01-29T07:39:12;99871.59;;;0.04;60.30
59063;BME280;44851;45.648;9.004;2023-01-29T07:41:37;99878.09;;;0.14;60.18
59063;BME280;44851;45.648;9.004;2023-01-29T07:44:03;99879.00;;;0.13;59.80
59063;BME280;44851;45.648;9.004;2023-01-29T07:46:28;99879.81;;;0.13;60.63
59063;BME280;44851;45.648;9.004;2023-01-29T07:48:54;99886.69;;;0.13;61.39
59063;BME280;44851;45.648;9.004;2023-01-29T07:51:19;99887.56;;;0.12;60.58
59063;BME280;44851;45.648;9.004;2023-01-29T07:53:45;99892.00;;;0.07;59.96
59063;BME280;44851;45.648;9.004;2023-01-29T07:56:11;99904.47;;;0.18;60.00
59063;BME280;44851;45.648;9.004;2023-01-29T07:58:36;99903.13;;;0.32;60.04
59063;BME280;44851;45.648;9.004;2023-01-29T08:01:05;99907.72;;;0.23;59.54
59063;BME280;44851;45.648;9.004;2023-01-29T08:03:34;99909.78;;;0.36;59.94
59063;BME280;44851;45.648;9.004;2023-01-29T08:06:00;99908.03;;;0.38;59.92
59063;BME280;44851;45.648;9.004;2023-01-29T08:08:25;99917.78;;;0.52;59.27
59063;BME280;44851;45.648;9.004;2023-01-29T08:10:51;99910.72;;;0.59;58.57
59063;BME280;44851;45.648;9.004;2023-01-29T08:13:16;99912.50;;;0.57;58.82
59063;BME280;44851;45.648;9.004;2023-01-29T08:15:44;99919.88;;;0.66;59.63
59063;BME280;44851;45.648;9.004;2023-01-29T08:18:10;99928.41;;;0.67;59.51
59063;BME280;44851;45.648;9.004;2023-01-29T08:20:36;99931.53;;;0.75;59.07
59063;BME280;44851;45.648;9.004;2023-01-29T08:23:04;99943.28;;;0.82;59.11
59063;BME280;44851;45.648;9.004;2023-01-29T08:25:30;99940.66;;;0.83;59.38
59063;BME280;44851;45.648;9.004;2023-01-29T08:27:57;99951.53;;;0.90;59.44
59063;BME280;44851;45.648;9.004;2023-01-29T08:30:26;99947.88;;;0.97;58.96
59063;BME280;44851;45.648;9.004;2023-01-29T08:32:52;99950.38;;;0.99;58.84
59063;BME280;44851;45.648;9.004;2023-01-29T08:35:17;99949.53;;;0.98;59.45
59063;BME280;44851;45.648;9.004;2023-01-29T08:37:43;99951.81;;;1.06;59.38
59063;BME280;44851;45.648;9.004;2023-01-29T08:40:08;99958.19;;;1.19;59.34
59063;BME280;44851;45.648;9.004;2023-01-29T08:42:36;99959.69;;;1.25;58.92
59063;BME280;44851;45.648;9.004;2023-01-29T08:45:01;99957.38;;;1.40;58.61
59063;BME280;44851;45.648;9.004;2023-01-29T08:47:27;99958.22;;;1.63;57.75
59063;BME280;44851;45.648;9.004;2023-01-29T08:49:52;99955.91;;;1.79;57.29
59063;BME280;44851;45.648;9.004;2023-01-29T08:52:17;99960.63;;;1.89;56.94
59063;BME280;44851;45.648;9.004;2023-01-29T08:54:42;99956.16;;;2.15;56.44
59063;BME280;44851;45.648;9.004;2023-01-29T08:57:08;99962.66;;;2.44;57.12
59063;BME280;44851;45.648;9.004;2023-01-29T08:59:33;99955.13;;;2.60;55.67
59063;BME280;44851;45.648;9.004;2023-01-29T09:01:58;99952.91;;;2.91;55.83
59063;BME280;44851;45.648;9.004;2023-01-29T09:04:24;99964.16;;;3.28;54.12
59063;BME280;44851;45.648;9.004;2023-01-29T09:06:49;99969.94;;;3.71;53.36
59063;BME280;44851;45.648;9.004;2023-01-29T09:09:14;99962.53;;;3.99;51.61
59063;BME280;44851;45.648;9.004;2023-01-29T09:11:40;99968.03;;;4.45;52.52
59063;BME280;44851;45.648;9.004;2023-01-29T09:14:05;99971.19;;;4.68;50.41
59063;BME280;44851;45.648;9.004;2023-01-29T09:16:30;99961.44;;;4.90;50.79
59063;BME280;44851;45.648;9.004;2023-01-29T09:18:56;99967.56;;;5.21;50.13
59063;BME280;44851;45.648;9.004;2023-01-29T09:21:21;99961.44;;;5.39;48.85
59063;BME280;44851;45.648;9.004;2023-01-29T09:23:46;99967.69;;;5.67;48.48
59063;BME280;44851;45.648;9.004;2023-01-29T09:26:12;99968.94;;;5.91;49.32
59063;BME280;44851;45.648;9.004;2023-01-29T09:28:37;99974.66;;;6.12;47.96
59063;BME280;44851;45.648;9.004;2023-01-29T09:31:03;99963.31;;;6.29;47.13
59063;BME280;44851;45.648;9.004;2023-01-29T09:33:28;99975.03;;;6.36;45.94
59063;BME280;44851;45.648;9.004;2023-01-29T09:35:55;99977.56;;;6.52;45.63
59063;BME280;44851;45.648;9.004;2023-01-29T09:38:20;99975.00;;;6.80;45.46
59063;BME280;44851;45.648;9.004;2023-01-29T09:41:15;99972.31;;;6.67;43.12
59063;BME280;44851;45.648;9.004;2023-01-29T09:43:48;99971.38;;;7.26;45.20
59063;BME280;44851;45.648;9.004;2023-01-29T09:46:22;99966.22;;;7.26;43.10
59063;BME280;44851;45.648;9.004;2023-01-29T09:48:56;99972.22;;;7.26;44.04
59063;BME280;44851;45.648;9.004;2023-01-29T09:51:30;99964.03;;;7.46;45.64
59063;BME280;44851;45.648;9.004;2023-01-29T09:54:20;99962.34;;;7.45;42.31
59063;BME280;44851;45.648;9.004;2023-01-29T09:56:50;99967.06;;;7.67;42.87
59063;BME280;44851;45.648;9.004;2023-01-29T09:59:18;99968.88;;;7.80;42.88
59063;BME280;44851;45.648;9.004;2023-01-29T10:02:04;99960.28;;;7.79;40.68
59063;BME280;44851;45.648;9.004;2023-01-29T10:11:31;99965.19;;;8.23;40.08
59063;BME280;44851;45.648;9.004;2023-01-29T10:13:44;99963.34;;;8.51;40.47
59063;BME280;44851;45.648;9.004;2023-01-29T10:16:20;99950.47;;;8.62;39.74
59063;BME280;44851;45.648;9.004;2023-01-29T10:19:01;99951.31;;;8.75;38.96
59063;BME280;44851;45.648;9.004;2023-01-29T10:22:10;99957.44;;;8.74;39.11
59063;BME280;44851;45.648;9.004;2023-01-29T10:24:59;99959.00;;;9.02;37.77
59063;BME280;44851;45.648;9.004;2023-01-29T10:27:32;99952.00;;;9.03;36.91
59063;BME280;44851;45.648;9.004;2023-01-29T10:29:59;99947.22;;;9.10;36.99
59063;BME280;44851;45.648;9.004;2023-01-29T10:32:36;99942.28;;;9.30;37.36
59063;BME280;44851;45.648;9.004;2023-01-29T10:35:12;99942.09;;;9.34;37.67
59063;BME280;44851;45.648;9.004;2023-01-29T10:37:42;99944.09;;;9.17;36.61
59063;BME280;44851;45.648;9.004;2023-01-29T10:42:48;99939.19;;;9.62;37.86
59063;BME280;44851;45.648;9.004;2023-01-29T10:50:27;99917.25;;;9.77;35.97
59063;BME280;44851;45.648;9.004;2023-01-29T10:53:14;99920.31;;;9.71;35.83
59063;BME280;44851;45.648;9.004;2023-01-29T10:58:37;99894.56;;;9.91;35.75
59063;BME280;44851;45.648;9.004;2023-01-29T11:01:09;99891.63;;;9.95;36.75
59063;BME280;44851;45.648;9.004;2023-01-29T11:03:35;99891.00;;;10.16;35.36
59063;BME280;44851;45.648;9.004;2023-01-29T11:09:16;99876.09;;;10.18;35.72
59063;BME280;44851;45.648;9.004;2023-01-29T11:11:56;99868.44;;;10.50;35.94
59063;BME280;44851;45.648;9.004;2023-01-29T11:14:45;99867.00;;;10.68;36.04
59063;BME280;44851;45.648;9.004;2023-01-29T11:17:20;99846.38;;;10.65;35.56
59063;BME280;44851;45.648;9.004;2023-01-29T11:19:48;99852.81;;;10.61;35.44
59063;BME280;44851;45.648;9.004;2023-01-29T11:22:17;99848.50;;;10.49;34.66
59063;BME280;44851;45.648;9.004;2023-01-29T11:24:45;99842.81;;;10.44;34.88
59063;BME280;44851;45.648;9.004;2023-01-29T11:27:25;99833.94;;;10.69;35.35
59063;BME280;44851;45.648;9.004;2023-01-29T11:29:54;99838.81;;;10.84;34.69
59063;BME280;44851;45.648;9.004;2023-01-29T11:35:03;99826.28;;;10.78;34.08
59063;BME280;44851;45.648;9.004;2023-01-29T11:37:39;99827.22;;;10.77;33.91
59063;BME280;44851;45.648;9.004;2023-01-29T11:42:44;99824.06;;;11.17;34.03
59063;BME280;44851;45.648;9.004;2023-01-29T11:45:30;99817.25;;;10.94;33.80
59063;BME280;44851;45.648;9.004;2023-01-29T11:47:58;99814.66;;;10.82;33.16
59063;BME280;44851;45.648;9.004;2023-01-29T11:50:26;99811.44;;;10.79;34.44
59063;BME280;44851;45.648;9.004;2023-01-29T11:52:52;99810.84;;;10.86;34.22
59063;BME280;44851;45.648;9.004;2023-01-29T11:55:23;99813.91;;;10.92;33.71
59063;BME280;44851;45.648;9.004;2023-01-29T11:58:00;99807.41;;;10.75;34.42
59063;BME280;44851;45.648;9.004;2023-01-29T12:00:30;99803.03;;;10.75;33.66
59063;BME280;44851;45.648;9.004;2023-01-29T12:05:37;99806.09;;;10.92;34.07
59063;BME280;44851;45.648;9.004;2023-01-29T12:08:14;99797.94;;;10.74;33.98
59063;BME280;44851;45.648;9.004;2023-01-29T12:10:42;99796.13;;;10.85;34.16
59063;BME280;44851;45.648;9.004;2023-01-29T12:15:44;99787.38;;;10.75;34.34
59063;BME280;44851;45.648;9.004;2023-01-29T12:18:25;99782.63;;;10.69;34.07
59063;BME280;44851;45.648;9.004;2023-01-29T12:20:57;99777.56;;;10.56;34.30
59063;BME280;44851;45.648;9.004;2023-01-29T12:26:05;99777.66;;;10.89;34.29
59063;BME280;44851;45.648;9.004;2023-01-29T12:28:38;99766.41;;;10.66;33.29
59063;BME280;44851;45.648;9.004;2023-01-29T12:31:14;99770.06;;;10.85;34.02
59063;BME280;44851;45.648;9.004;2023-01-29T12:33:54;99758.69;;;10.75;33.22
59063;BME280;44851;45.648;9.004;2023-01-29T12:36:33;99755.06;;;10.55;32.44
59063;BME280;44851;45.648;9.004;2023-01-29T12:39:02;99746.34;;;10.89;34.10
59063;BME280;44851;45.648;9.004;2023-01-29T12:41:29;99747.00;;;11.02;33.87
59063;BME280;44851;45.648;9.004;2023-01-29T12:44:06;99741.97;;;10.89;33.16
59063;BME280;44851;45.648;9.004;2023-01-29T12:46:42;99749.00;;;10.55;34.31
59063;BME280;44851;45.648;9.004;2023-01-29T12:49:21;99741.28;;;10.65;35.01
59063;BME280;44851;45.648;9.004;2023-01-29T12:52:10;99739.16;;;10.58;34.07
59063;BME280;44851;45.648;9.004;2023-01-29T12:54:42;99731.31;;;10.70;33.40
59063;BME280;44851;45.648;9.004;2023-01-29T12:57:23;99734.84;;;10.91;33.21
59063;BME280;44851;45.648;9.004;2023-01-29T12:59:57;99723.91;;;10.97;34.26
59063;BME280;44851;45.648;9.004;2023-01-29T13:02:35;99717.34;;;10.59;34.25
59063;BME280;44851;45.648;9.004;2023-01-29T13:05:14;99713.19;;;10.68;34.66
59063;BME280;44851;45.648;9.004;2023-01-29T13:07:46;99706.06;;;10.70;34.53
59063;BME280;44851;45.648;9.004;2023-01-29T13:10:17;99704.06;;;10.63;35.51
59063;BME280;44851;45.648;9.004;2023-01-29T13:12:53;99698.53;;;10.33;34.92
59063;BME280;44851;45.648;9.004;2023-01-29T13:15:25;99690.75;;;10.45;36.11
59063;BME280;44851;45.648;9.004;2023-01-29T13:17:56;99689.69;;;10.25;34.33
59063;BME280;44851;45.648;9.004;2023-01-29T13:20:32;99686.25;;;10.35;34.96
59063;BME280;44851;45.648;9.004;2023-01-29T13:23:14;99681.78;;;10.15;35.14
59063;BME280;44851;45.648;9.004;2023-01-29T13:25:42;99680.31;;;10.22;35.94
59063;BME280;44851;45.648;9.004;2023-01-29T13:28:16;99684.38;;;9.93;35.25
59063;BME280;44851;45.648;9.004;2023-01-29T13:30:43;99680.22;;;9.90;36.07
59063;BME280;44851;45.648;9.004;2023-01-29T13:33:20;99672.06;;;9.95;35.43
59063;BME280;44851;45.648;9.004;2023-01-29T13:35:47;99668.97;;;10.12;35.93
59063;BME280;44851;45.648;9.004;2023-01-29T13:38:29;99669.34;;;10.19;36.13
59063;BME280;44851;45.648;9.004;2023-01-29T13:41:02;99668.97;;;10.12;35.67
59063;BME280;44851;45.648;9.004;2023-01-29T13:43:34;99670.19;;;9.97;35.31
59063;BME280;44851;45.648;9.004;2023-01-29T13:46:08;99665.91;;;9.85;36.02
59063;BME280;44851;45.648;9.004;2023-01-29T13:48:40;99661.44;;;9.98;36.85
59063;BME280;44851;45.648;9.004;2023-01-29T13:51:10;99660.69;;;9.73;36.86
59063;BME280;44851;45.648;9.004;2023-01-29T13:59:02;99658.91;;;9.85;36.48
59063;BME280;44851;45.648;9.004;2023-01-29T14:06:47;99654.31;;;9.55;36.48
59063;BME280;44851;45.648;9.004;2023-01-29T14:09:33;99653.81;;;9.39;37.10
59063;BME280;44851;45.648;9.004;2023-01-29T14:15:03;99646.47;;;9.33;37.96
59063;BME280;44851;45.648;9.004;2023-01-29T14:17:29;99640.16;;;9.24;36.77
59063;BME280;44851;45.648;9.004;2023-01-29T14:20:17;99633.81;;;9.04;37.02
59063;BME280;44851;45.648;9.004;2023-01-29T14:22:43;99630.22;;;9.18;38.22
59063;BME280;44851;45.648;9.004;2023-01-29T14:25:16;99623.72;;;8.88;37.42
59063;BME280;44851;45.648;9.004;2023-01-29T14:27:47;99617.72;;;8.88;38.22
59063;BME280;44851;45.648;9.004;2023-01-29T14:30:15;99610.59;;;8.78;38.67
59063;BME280;44851;45.648;9.004;2023-01-29T14:32:45;99612.97;;;8.82;38.60
59063;BME280;44851;45.648;9.004;2023-01-29T14:35:25;99616.81;;;8.65;38.54
59063;BME280;44851;45.648;9.004;2023-01-29T14:37:54;99612.72;;;8.49;38.38
59063;BME280;44851;45.648;9.004;2023-01-29T14:40:25;99612.94;;;8.46;38.92
59063;BME280;44851;45.648;9.004;2023-01-29T14:45:35;99618.72;;;8.02;39.50
59063;BME280;44851;45.648;9.004;2023-01-29T14:53:23;99614.97;;;8.06;39.70
59063;BME280;44851;45.648;9.004;2023-01-29T14:56:00;99612.56;;;8.03;40.59
59063;BME280;44851;45.648;9.004;2023-01-29T14:58:33;99606.69;;;7.88;40.40